San Angelo's Hourly Summary for Thursday, July 5, 2018
Hour Temp
(f)
RH
(%)
Solar Rad.
(MJ/m2)
Rainfall
(in)
Wind
(mph)
7/5/2018 12:00 AM 79 62 0 0 7.4
7/5/2018 1:00 AM 77 69 0 0 5.98
7/5/2018 2:00 AM 75 73 0 0 4.99
7/5/2018 3:00 AM 74 77 0 0 4.63
7/5/2018 4:00 AM 74 79 0 0 5.45
7/5/2018 5:00 AM 74 80 0 0 4.51
7/5/2018 6:00 AM 72 82 0 0.01 4.98
7/5/2018 7:00 AM 72 93 0 0 6.36
7/5/2018 8:00 AM 71 91 0.05 0 7.79
7/5/2018 9:00 AM 71 86 0.18 0 8.37
7/5/2018 10:00 AM 72 81 0.77 0 8.67
7/5/2018 11:00 AM 73 70 1.14 0 8.53
7/5/2018 12:00 PM 77 57 2.13 0 9.33
7/5/2018 1:00 PM 80 53 2.56 0 10.28
7/5/2018 2:00 PM 82 51 2.36 0 9.2
7/5/2018 3:00 PM 82 52 1.86 0 8.94
7/5/2018 4:00 PM 83 52 1.62 0 8.4
7/5/2018 5:00 PM 84 51 1.93 0 9.21
7/5/2018 6:00 PM 85 48 1.45 0 8.46
7/5/2018 7:00 PM 85 48 0.77 0 6.29
7/5/2018 8:00 PM 86 47 0.64 0 5.41
7/5/2018 9:00 PM 84 48 0.09 0 4.24
7/5/2018 10:00 PM 83 50 0 0 1.49
7/5/2018 11:00 PM 82 52 0 0 1.02
Data Summary 78 64 17.55 0.01 6.66